Time;durP1;ratioP1;P1;durP2;ratioP2;P2;SDS_P1;SDS_P2;PMS_P1;PMS_P2;Temp;Humidity;BMP_temperature;BMP_pressure;BME280_temperature;BME280_humidity;BME280_pressure;Samples;Min_cycle;Max_cycle;Signal;HPM_P1;HPM_P2
2021/07/27 00:01:14;;;;;;;3.50;3.20;;;24.10;73.10;;;;;;5054077;28;20576;-49
2021/07/27 00:03:40;;;;;;;3.30;2.90;;;24.10;73.20;;;;;;5054193;28;20052;-47
2021/07/27 00:06:08;;;;;;;3.70;3.17;;;24.10;73.20;;;;;;5053498;28;20045;-48
2021/07/27 00:08:37;;;;;;;3.60;3.30;;;24.00;73.10;;;;;;5053731;28;20486;-43
2021/07/27 00:11:08;;;;;;;3.40;3.05;;;24.00;73.10;;;;;;5053965;28;20049;-43
2021/07/27 00:13:34;;;;;;;3.47;3.17;;;24.00;73.10;;;;;;5053503;28;20040;-41
2021/07/27 00:16:01;;;;;;;3.75;3.30;;;24.10;73.10;;;;;;5052393;28;20528;-46
2021/07/27 00:18:26;;;;;;;5.13;4.13;;;24.10;73.20;;;;;;5053686;28;20045;-45
2021/07/27 00:20:52;;;;;;;3.92;3.53;;;24.00;73.70;;;;;;5053615;28;20052;-45
2021/07/27 00:23:18;;;;;;;4.43;3.70;;;24.00;73.10;;;;;;5054165;28;20045;-45
2021/07/27 00:25:44;;;;;;;3.92;3.20;;;24.00;73.10;;;;;;5053684;28;20405;-49
2021/07/27 00:28:13;;;;;;;4.47;3.40;;;24.00;73.10;;;;;;5052819;28;20055;-45
2021/07/27 00:30:39;;;;;;;5.00;4.13;;;24.00;73.10;;;;;;5053704;28;20045;-44
2021/07/27 00:33:05;;;;;;;3.38;3.08;;;24.00;73.10;;;;;;5053525;28;20056;-49
2021/07/27 00:35:32;;;;;;;4.47;2.92;;;24.00;73.10;;;;;;5053771;28;20048;-46
2021/07/27 00:38:20;;;;;;;4.68;3.63;;;24.00;73.10;;;;;;5052375;28;20473;-43
2021/07/27 00:40:45;;;;;;;4.50;3.00;;;24.00;73.10;;;;;;5053360;28;20061;-43
2021/07/27 00:43:12;;;;;;;4.32;3.63;;;24.00;73.10;;;;;;5053311;28;20413;-46
2021/07/27 00:45:38;;;;;;;4.57;3.63;;;24.00;73.00;;;;;;5053551;28;20048;-45
2021/07/27 00:48:04;;;;;;;4.60;4.15;;;24.00;73.00;;;;;;5052948;28;20041;-46
2021/07/27 00:50:31;;;;;;;4.47;3.97;;;23.90;73.00;;;;;;5053414;28;20056;-45
2021/07/27 00:52:59;;;;;;;4.65;3.70;;;24.00;73.10;;;;;;5052823;28;20071;-46
2021/07/27 00:55:28;;;;;;;5.15;3.75;;;24.00;73.00;;;;;;5053261;28;20052;-49
2021/07/27 00:57:55;;;;;;;4.45;3.60;;;24.00;73.00;;;;;;5052637;28;20068;-42
2021/07/27 01:00:22;;;;;;;4.13;3.60;;;23.90;73.00;;;;;;5051668;28;20060;-49
2021/07/27 01:02:48;;;;;;;4.30;3.85;;;24.00;73.00;;;;;;5053294;28;20143;-47
2021/07/27 01:05:14;;;;;;;5.10;4.13;;;23.90;73.00;;;;;;5053332;28;20080;-48
2021/07/27 01:07:41;;;;;;;3.53;3.22;;;23.90;73.00;;;;;;5051832;28;20055;-51
2021/07/27 01:10:08;;;;;;;4.55;3.72;;;23.90;73.00;;;;;;5052476;28;20129;-47
2021/07/27 01:12:35;;;;;;;5.03;4.07;;;24.00;73.00;;;;;;5052847;28;20106;-43
2021/07/27 01:15:02;;;;;;;4.00;3.33;;;23.90;72.90;;;;;;5052868;28;20072;-43
2021/07/27 01:17:28;;;;;;;4.35;3.55;;;23.90;73.00;;;;;;5051585;28;20060;-48
2021/07/27 01:42:11;;;;;;;4.00;3.40;;;23.90;73.00;;;;;;5049776;28;20412;-48
2021/07/27 01:44:44;;;;;;;4.07;3.35;;;23.90;73.00;;;;;;5050215;28;20049;-47
2021/07/27 01:47:17;;;;;;;4.95;4.28;;;23.90;73.00;;;;;;5050037;28;20061;-48
2021/07/27 01:49:44;;;;;;;3.97;3.20;;;23.90;73.00;;;;;;5048353;28;20547;-47
2021/07/27 01:52:13;;;;;;;3.97;3.13;;;23.90;73.00;;;;;;5049692;28;20068;-43
2021/07/27 01:54:44;;;;;;;4.30;3.60;;;23.90;73.00;;;;;;5049334;28;20127;-44
2021/07/27 01:57:13;;;;;;;4.10;3.22;;;23.90;73.00;;;;;;5049395;28;20045;-46
2021/07/27 01:59:39;;;;;;;4.80;3.38;;;23.90;73.00;;;;;;5039470;28;20062;-47
2021/07/27 02:02:06;;;;;;;3.30;2.92;;;23.90;73.00;;;;;;5032304;28;20125;-43
2021/07/27 02:04:32;;;;;;;3.38;2.67;;;23.90;73.00;;;;;;5049745;28;20138;-44
2021/07/27 02:06:58;;;;;;;4.82;3.50;;;23.90;73.00;;;;;;5049721;28;20051;-49
2021/07/27 02:09:25;;;;;;;4.20;3.35;;;23.90;73.00;;;;;;5042842;28;20470;-47
2021/07/27 02:11:56;;;;;;;4.30;3.40;;;23.90;73.00;;;;;;5029626;28;20050;-45
2021/07/27 02:14:24;;;;;;;3.72;2.65;;;23.90;73.00;;;;;;5048116;28;20041;-47
2021/07/27 02:16:50;;;;;;;4.55;3.17;;;23.90;73.00;;;;;;5052022;28;20048;-47
2021/07/27 02:19:16;;;;;;;5.03;3.10;;;23.90;73.00;;;;;;5053527;28;20477;-47
2021/07/27 02:21:41;;;;;;;4.43;3.95;;;23.90;73.00;;;;;;5056191;28;20077;-47
2021/07/27 02:24:07;;;;;;;3.78;3.13;;;23.90;73.00;;;;;;5055816;28;20485;-45
2021/07/27 02:26:33;;;;;;;3.53;3.05;;;23.90;73.00;;;;;;5055789;28;20049;-46
2021/07/27 02:28:58;;;;;;;4.07;3.00;;;23.90;73.00;;;;;;5055767;28;20498;-43
2021/07/27 02:31:32;;;;;;;3.60;3.25;;;23.90;73.00;;;;;;5055868;28;20595;-44
2021/07/27 02:33:58;;;;;;;4.80;2.97;;;23.90;73.00;;;;;;5055477;28;20421;-49
2021/07/27 02:36:24;;;;;;;3.03;2.72;;;23.90;73.00;;;;;;5055897;28;20110;-44
2021/07/27 02:38:50;;;;;;;3.25;2.83;;;23.80;73.00;;;;;;5055579;28;20049;-47
2021/07/27 02:41:21;;;;;;;3.08;2.75;;;23.80;73.00;;;;;;5055796;28;20049;-50
2021/07/27 02:43:47;;;;;;;3.17;2.78;;;23.90;73.00;;;;;;5055726;28;20044;-50
2021/07/27 02:46:12;;;;;;;3.83;2.67;;;23.90;73.00;;;;;;5055776;28;20470;-49
2021/07/27 02:48:43;;;;;;;3.15;2.80;;;23.80;73.00;;;;;;5055023;28;20688;-47
2021/07/27 02:51:11;;;;;;;2.65;2.35;;;23.90;73.00;;;;;;5055509;28;20053;-47
2021/07/27 02:53:37;;;;;;;2.97;2.50;;;23.90;73.00;;;;;;5055791;28;20048;-47
2021/07/27 02:56:03;;;;;;;3.38;2.83;;;23.90;73.00;;;;;;5055674;28;20045;-50
2021/07/27 02:58:30;;;;;;;3.55;2.60;;;23.80;73.00;;;;;;5054948;28;20064;-52
2021/07/27 03:00:56;;;;;;;3.17;2.40;;;23.80;73.00;;;;;;5055100;28;20045;-51
2021/07/27 03:03:21;;;;;;;3.05;2.22;;;23.80;73.00;;;;;;5055250;28;20052;-44
2021/07/27 03:05:47;;;;;;;3.67;2.42;;;23.80;73.00;;;;;;5055717;28;20045;-50
2021/07/27 03:08:19;;;;;;;3.03;2.50;;;23.80;73.00;;;;;;5054970;28;20049;-50
2021/07/27 03:10:45;;;;;;;3.10;2.80;;;23.80;73.00;;;;;;5054774;28;20049;-49
2021/07/27 03:13:11;;;;;;;3.10;2.55;;;23.80;73.00;;;;;;5054882;28;20417;-44
2021/07/27 03:15:37;;;;;;;2.85;2.58;;;23.80;73.00;;;;;;5055335;28;20045;-52
2021/07/27 03:18:02;;;;;;;3.28;2.80;;;23.80;73.00;;;;;;5054378;28;20480;-48
2021/07/27 03:20:29;;;;;;;3.33;2.95;;;23.80;73.00;;;;;;5054752;28;20037;-49
2021/07/27 03:22:56;;;;;;;3.35;2.95;;;23.80;73.00;;;;;;5055133;28;20045;-49
2021/07/27 03:25:22;;;;;;;3.63;3.05;;;23.80;73.00;;;;;;5054991;28;20052;-49
2021/07/27 03:27:50;;;;;;;3.17;2.42;;;23.80;73.00;;;;;;5054413;28;20513;-44
2021/07/27 03:30:17;;;;;;;3.22;2.92;;;23.80;73.00;;;;;;5052912;28;20494;-49
2021/07/27 03:32:44;;;;;;;3.72;3.00;;;23.80;73.00;;;;;;5054095;28;20512;-52
2021/07/27 03:35:13;;;;;;;2.90;2.42;;;23.80;73.10;;;;;;5054873;28;20049;-46
2021/07/27 03:37:38;;;;;;;2.42;2.22;;;23.80;73.00;;;;;;5054476;28;20056;-48
2021/07/27 03:40:05;;;;;;;2.60;2.40;;;23.80;73.10;;;;;;5054770;28;20091;-50
2021/07/27 03:42:30;;;;;;;3.20;2.55;;;23.80;73.10;;;;;;5054160;28;20051;-51
2021/07/27 03:44:59;;;;;;;3.35;2.88;;;23.80;73.10;;;;;;5053775;28;20033;-51
2021/07/27 03:47:26;;;;;;;3.15;2.85;;;23.80;73.10;;;;;;5054251;28;20144;-51
2021/07/27 03:49:56;;;;;;;2.78;2.35;;;23.80;73.10;;;;;;5054643;28;20049;-53
2021/07/27 03:52:22;;;;;;;3.63;2.88;;;23.80;73.70;;;;;;5054036;28;20090;-49
2021/07/27 03:54:47;;;;;;;3.22;2.92;;;23.80;73.10;;;;;;5054209;28;20044;-52
2021/07/27 03:57:14;;;;;;;3.05;2.75;;;23.80;73.10;;;;;;5053484;28;20462;-48
2021/07/27 03:59:40;;;;;;;2.83;2.53;;;23.80;73.10;;;;;;5053208;28;20080;-49
2021/07/27 04:02:06;;;;;;;3.38;2.83;;;23.80;73.10;;;;;;5053669;28;20045;-42
2021/07/27 04:04:34;;;;;;;4.15;3.10;;;23.80;73.00;;;;;;5054166;28;20382;-44
2021/07/27 04:07:00;;;;;;;3.20;2.55;;;23.70;73.00;;;;;;5054476;28;20049;-43
2021/07/27 04:09:27;;;;;;;3.25;2.95;;;23.80;73.00;;;;;;5053978;28;20135;-43
2021/07/27 04:11:53;;;;;;;3.10;2.80;;;23.80;73.00;;;;;;5054118;28;20045;-43
2021/07/27 04:14:21;;;;;;;3.72;2.95;;;23.80;73.00;;;;;;5053604;28;20049;-43
2021/07/27 04:16:47;;;;;;;3.75;3.17;;;23.80;73.00;;;;;;5053263;28;20040;-43
2021/07/27 04:19:12;;;;;;;3.78;3.10;;;23.70;73.00;;;;;;5053960;28;20135;-44
2021/07/27 04:21:40;;;;;;;3.25;2.90;;;23.70;73.00;;;;;;5054118;28;20123;-45
2021/07/27 04:24:12;;;;;;;4.00;3.47;;;23.70;73.00;;;;;;5053596;28;20551;-44
2021/07/27 04:26:38;;;;;;;4.35;3.63;;;23.80;73.10;;;;;;5047179;28;20042;-46
2021/07/27 04:29:04;;;;;;;3.58;3.08;;;23.80;73.10;;;;;;5051185;28;20580;-46
2021/07/27 04:31:30;;;;;;;3.28;2.97;;;23.70;73.00;;;;;;5053298;28;20116;-44
2021/07/27 04:33:56;;;;;;;3.90;2.88;;;23.80;73.10;;;;;;5053573;28;20045;-46
2021/07/27 04:36:21;;;;;;;2.78;2.50;;;23.70;73.70;;;;;;5052479;28;20494;-47
2021/07/27 04:38:47;;;;;;;4.10;2.95;;;23.80;73.10;;;;;;5053104;28;20102;-46
2021/07/27 04:41:13;;;;;;;3.20;2.88;;;23.70;73.00;;;;;;5053230;28;20041;-47
2021/07/27 04:43:39;;;;;;;3.72;2.97;;;23.80;73.10;;;;;;5053320;28;20048;-48
2021/07/27 04:46:07;;;;;;;3.55;2.80;;;23.70;73.10;;;;;;5053135;28;20044;-43
2021/07/27 04:48:33;;;;;;;3.58;2.85;;;23.70;73.10;;;;;;5052176;28;20615;-42
2021/07/27 04:50:59;;;;;;;3.45;3.00;;;23.70;73.10;;;;;;5053427;28;20040;-41
2021/07/27 04:53:25;;;;;;;3.30;2.92;;;23.70;73.10;;;;;;5053314;28;20055;-49
2021/07/27 04:55:58;;;;;;;3.60;2.97;;;23.70;73.00;;;;;;5053005;28;20175;-42
2021/07/27 04:58:23;;;;;;;3.33;2.80;;;23.70;73.10;;;;;;5052489;28;20142;-46
2021/07/27 05:00:49;;;;;;;3.50;3.20;;;23.70;73.00;;;;;;5052941;28;20509;-44
2021/07/27 05:03:15;;;;;;;3.10;2.80;;;23.70;73.00;;;;;;5053124;28;20478;-46
2021/07/27 05:05:40;;;;;;;3.95;2.92;;;23.70;73.10;;;;;;5053047;28;20051;-45
2021/07/27 05:08:06;;;;;;;4.30;3.30;;;23.70;73.00;;;;;;5052977;28;20131;-42
2021/07/27 05:10:32;;;;;;;3.10;2.80;;;23.70;73.00;;;;;;5052887;28;20107;-42
2021/07/27 05:12:58;;;;;;;3.80;3.30;;;23.70;73.00;;;;;;5052963;28;20044;-47
2021/07/27 05:15:24;;;;;;;3.33;3.03;;;23.70;73.00;;;;;;5053014;28;20508;-43
2021/07/27 05:17:59;;;;;;;3.75;2.80;;;23.70;73.00;;;;;;5051641;28;20703;-44
2021/07/27 05:20:25;;;;;;;4.05;3.30;;;23.70;73.00;;;;;;5051519;28;20056;-43
2021/07/27 05:22:51;;;;;;;4.00;3.10;;;23.70;73.10;;;;;;5052894;28;20823;-42
2021/07/27 05:25:17;;;;;;;3.95;3.00;;;23.70;73.00;;;;;;5052909;28;20045;-46
2021/07/27 05:27:43;;;;;;;3.38;3.08;;;23.70;73.10;;;;;;5053039;28;20099;-43
2021/07/27 05:30:10;;;;;;;3.00;2.60;;;23.70;73.10;;;;;;5051959;28;20393;-43
2021/07/27 05:32:36;;;;;;;3.20;2.75;;;23.70;73.10;;;;;;5052665;28;20406;-42
2021/07/27 05:35:01;;;;;;;3.45;2.75;;;23.70;73.10;;;;;;5052211;28;20047;-46
2021/07/27 05:37:27;;;;;;;3.50;3.20;;;23.70;73.10;;;;;;5052285;28;20514;-44
2021/07/27 05:39:53;;;;;;;4.45;3.20;;;23.70;73.10;;;;;;5051991;28;20041;-45
2021/07/27 05:42:19;;;;;;;3.67;3.28;;;23.70;73.10;;;;;;5052383;28;20451;-46
2021/07/27 05:44:44;;;;;;;2.88;2.67;;;23.70;73.10;;;;;;5052774;28;20052;-43
2021/07/27 05:47:10;;;;;;;3.40;2.58;;;23.70;73.10;;;;;;5052210;28;20037;-50
2021/07/27 05:49:37;;;;;;;3.78;2.95;;;23.70;73.10;;;;;;5051872;28;20076;-47
2021/07/27 05:52:04;;;;;;;4.05;3.65;;;23.70;73.10;;;;;;5051502;28;20083;-43
2021/07/27 05:54:32;;;;;;;3.97;3.10;;;23.70;73.10;;;;;;5051673;28;20073;-49
2021/07/27 05:56:58;;;;;;;3.60;3.13;;;23.70;73.10;;;;;;5052465;28;20049;-41
2021/07/27 05:59:24;;;;;;;2.88;2.58;;;23.70;73.10;;;;;;5051739;28;20045;-46
2021/07/27 06:01:50;;;;;;;3.25;2.95;;;23.70;73.10;;;;;;5048884;28;20092;-51
2021/07/27 06:04:16;;;;;;;3.95;3.30;;;23.70;73.10;;;;;;5052142;28;20060;-50
2021/07/27 06:06:42;;;;;;;3.42;2.83;;;23.70;73.10;;;;;;5051704;28;20045;-42
2021/07/27 06:09:11;;;;;;;3.28;2.97;;;23.70;73.10;;;;;;5051960;28;20401;-45
2021/07/27 06:11:38;;;;;;;3.05;2.75;;;23.70;73.10;;;;;;5051542;28;20041;-48
2021/07/27 06:14:06;;;;;;;3.60;3.17;;;23.70;73.10;;;;;;5052401;28;20053;-44
2021/07/27 06:16:35;;;;;;;3.70;2.83;;;23.70;73.10;;;;;;5051867;28;20041;-44
2021/07/27 06:19:00;;;;;;;3.17;2.88;;;23.70;73.10;;;;;;5052170;28;20095;-45
2021/07/27 06:21:27;;;;;;;3.40;3.10;;;23.70;73.10;;;;;;5050701;28;20049;-47
2021/07/27 06:23:53;;;;;;;3.72;3.17;;;23.70;73.20;;;;;;5052032;28;20041;-45
2021/07/27 06:26:19;;;;;;;3.47;2.95;;;23.70;73.10;;;;;;5052071;28;20132;-46
2021/07/27 06:28:44;;;;;;;3.97;2.58;;;23.70;73.10;;;;;;5052026;28;20045;-46
2021/07/27 06:31:13;;;;;;;3.70;3.17;;;23.70;73.10;;;;;;5051725;28;20045;-47
2021/07/27 06:33:43;;;;;;;3.92;3.30;;;23.70;73.10;;;;;;5051561;28;20052;-47
2021/07/27 06:36:09;;;;;;;3.40;3.10;;;23.70;73.10;;;;;;5051796;28;20049;-46
2021/07/27 06:38:35;;;;;;;3.85;3.38;;;23.70;73.10;;;;;;5051472;28;20049;-44
2021/07/27 06:41:04;;;;;;;3.05;2.75;;;23.70;73.10;;;;;;5051544;28;20060;-46
2021/07/27 06:43:29;;;;;;;3.63;2.78;;;23.70;73.10;;;;;;5051788;28;20412;-51
2021/07/27 06:45:56;;;;;;;3.08;2.78;;;23.70;73.10;;;;;;5051734;28;20052;-47
2021/07/27 06:48:23;;;;;;;3.60;3.20;;;23.60;73.10;;;;;;5051772;28;20037;-46
2021/07/27 06:50:50;;;;;;;3.45;3.15;;;23.70;73.20;;;;;;5051516;28;20075;-43
2021/07/27 06:53:17;;;;;;;3.83;3.10;;;23.70;73.10;;;;;;5051074;28;20072;-45
2021/07/27 06:55:42;;;;;;;4.13;3.72;;;23.70;73.10;;;;;;5051180;28;20076;-46
2021/07/27 06:58:08;;;;;;;3.67;3.08;;;23.60;73.00;;;;;;5051900;28;20072;-53
2021/07/27 07:00:34;;;;;;;3.80;3.40;;;23.70;73.10;;;;;;5050972;28;20501;-46
2021/07/27 07:03:01;;;;;;;3.38;3.08;;;23.70;73.10;;;;;;5050898;28;20056;-45
2021/07/27 07:05:26;;;;;;;3.67;3.20;;;23.70;73.10;;;;;;5053565;28;20106;-42
2021/07/27 07:07:52;;;;;;;4.05;3.33;;;23.70;73.20;;;;;;5055095;28;20119;-49
2021/07/27 07:10:18;;;;;;;3.50;3.08;;;23.70;73.20;;;;;;5054574;28;20045;-43
2021/07/27 07:12:43;;;;;;;3.55;3.22;;;23.70;73.10;;;;;;5055189;28;20052;-42
2021/07/27 07:15:10;;;;;;;4.60;3.35;;;23.70;73.10;;;;;;5055052;28;20052;-48
2021/07/27 07:17:36;;;;;;;4.05;3.35;;;23.70;73.10;;;;;;5054936;28;20052;-49
2021/07/27 07:20:02;;;;;;;3.20;2.88;;;23.70;73.10;;;;;;5055323;28;20052;-48
2021/07/27 07:22:29;;;;;;;3.65;3.22;;;23.70;73.80;;;;;;5054938;28;20568;-47
2021/07/27 07:24:55;;;;;;;3.75;3.42;;;23.60;73.10;;;;;;5054674;28;20048;-45
2021/07/27 07:27:21;;;;;;;3.92;3.25;;;23.70;73.10;;;;;;5054970;28;20056;-42
2021/07/27 07:29:46;;;;;;;3.47;3.10;;;23.70;73.10;;;;;;5054622;28;20487;-44
2021/07/27 07:32:12;;;;;;;3.47;3.17;;;23.70;73.10;;;;;;5054584;28;20485;-45
2021/07/27 07:34:38;;;;;;;3.30;2.97;;;23.70;73.10;;;;;;5055001;28;20076;-44
2021/07/27 07:37:06;;;;;;;4.30;3.47;;;23.70;73.10;;;;;;5054162;28;20454;-43
2021/07/27 07:39:33;;;;;;;4.10;3.55;;;23.60;73.10;;;;;;5054809;28;20052;-45
2021/07/27 07:41:59;;;;;;;4.20;3.45;;;23.70;73.10;;;;;;5054049;28;20499;-45
2021/07/27 07:44:25;;;;;;;4.45;3.47;;;23.60;73.10;;;;;;5054257;28;20175;-45
2021/07/27 07:46:51;;;;;;;4.00;3.50;;;23.70;73.80;;;;;;5054200;28;20490;-44
2021/07/27 07:49:17;;;;;;;4.15;3.35;;;23.70;73.10;;;;;;5054710;28;20052;-43
2021/07/27 07:51:50;;;;;;;4.25;3.85;;;23.70;73.10;;;;;;5053944;28;20041;-43
2021/07/27 07:54:17;;;;;;;3.70;3.40;;;23.60;73.00;;;;;;5054498;28;20087;-46
2021/07/27 07:56:46;;;;;;;4.55;3.80;;;23.70;73.10;;;;;;5054243;28;20071;-42
2021/07/27 07:59:13;;;;;;;4.20;3.80;;;23.70;73.20;;;;;;5053797;28;20083;-44
2021/07/27 08:01:39;;;;;;;4.32;3.83;;;23.70;73.10;;;;;;5053574;28;20059;-49
2021/07/27 08:04:05;;;;;;;4.10;3.50;;;23.70;73.10;;;;;;5054118;28;20041;-45
2021/07/27 08:06:31;;;;;;;4.45;3.80;;;23.70;73.10;;;;;;5054513;28;20453;-46
2021/07/27 08:08:57;;;;;;;4.10;3.55;;;23.70;73.10;;;;;;5053706;28;20126;-44
2021/07/27 08:11:24;;;;;;;3.88;3.22;;;23.70;73.10;;;;;;5053589;28;20049;-40
2021/07/27 08:13:55;;;;;;;3.83;3.45;;;23.70;73.10;;;;;;5053814;28;20045;-45
2021/07/27 08:16:22;;;;;;;4.03;3.58;;;23.70;73.10;;;;;;5053033;28;20057;-42
2021/07/27 08:18:48;;;;;;;4.80;3.85;;;23.70;73.10;;;;;;5053238;28;20124;-44
2021/07/27 08:21:14;;;;;;;4.35;3.95;;;23.70;73.10;;;;;;5053743;28;20131;-43
2021/07/27 08:23:44;;;;;;;4.57;4.00;;;23.70;73.10;;;;;;5053501;28;20492;-44
2021/07/27 08:26:10;;;;;;;4.30;3.90;;;23.70;73.10;;;;;;5053554;28;20048;-44
2021/07/27 08:28:36;;;;;;;4.10;3.65;;;23.70;73.10;;;;;;5053313;28;20139;-46
2021/07/27 08:31:02;;;;;;;4.07;3.67;;;23.70;73.10;;;;;;5053189;28;20052;-42
2021/07/27 08:33:27;;;;;;;4.80;4.03;;;23.70;73.10;;;;;;5053740;28;20041;-45
2021/07/27 08:35:53;;;;;;;4.97;4.18;;;23.70;73.20;;;;;;5053932;28;20060;-43
2021/07/27 08:38:19;;;;;;;4.60;3.92;;;23.70;73.10;;;;;;5053671;28;20055;-45
2021/07/27 08:40:49;;;;;;;5.55;3.95;;;23.70;73.20;;;;;;5053209;28;20049;-43
2021/07/27 08:43:16;;;;;;;6.18;4.82;;;23.70;73.10;;;;;;5052785;28;20044;-43
2021/07/27 08:45:45;;;;;;;5.13;4.63;;;23.70;73.10;;;;;;5053488;28;20049;-45
2021/07/27 08:48:14;;;;;;;5.93;4.50;;;23.70;73.10;;;;;;5053850;28;20064;-46
2021/07/27 08:50:42;;;;;;;4.70;3.90;;;23.70;73.10;;;;;;5053084;28;20048;-43
2021/07/27 08:53:07;;;;;;;4.32;3.85;;;23.70;73.20;;;;;;5052800;28;20041;-42
2021/07/27 08:55:33;;;;;;;4.72;3.90;;;23.70;73.10;;;;;;5047341;28;20049;-45
2021/07/27 08:57:59;;;;;;;4.20;3.80;;;23.70;73.10;;;;;;5033588;28;20057;-45
2021/07/27 09:00:27;;;;;;;4.97;4.07;;;23.70;73.20;;;;;;5032492;28;20092;-49
2021/07/27 09:02:53;;;;;;;5.03;4.40;;;23.70;73.10;;;;;;5048813;28;20131;-45
2021/07/27 09:05:19;;;;;;;6.90;4.43;;;23.70;73.10;;;;;;5052790;28;20159;-44
2021/07/27 09:07:44;;;;;;;5.75;4.55;;;23.70;73.20;;;;;;5051970;28;20049;-43
2021/07/27 09:10:21;;;;;;;5.43;4.35;;;23.70;73.20;;;;;;5053202;28;20053;-44
2021/07/27 09:13:05;;;;;;;5.43;4.50;;;23.80;73.30;;;;;;5052767;28;20406;-44
2021/07/27 09:15:45;;;;;;;5.93;4.72;;;23.70;73.20;;;;;;5052209;28;20049;-47
2021/07/27 09:18:15;;;;;;;5.00;4.50;;;23.80;73.30;;;;;;5053265;28;20060;-48
2021/07/27 09:20:48;;;;;;;5.00;4.32;;;23.80;73.30;;;;;;5052703;28;20066;-45
2021/07/27 09:23:30;;;;;;;4.70;4.28;;;23.70;73.20;;;;;;5052279;28;20436;-44
2021/07/27 09:25:58;;;;;;;5.25;4.63;;;23.80;73.30;;;;;;5032818;28;20056;-50
2021/07/27 09:28:25;;;;;;;5.32;4.82;;;23.80;73.30;;;;;;5032705;28;20055;-46
2021/07/27 09:31:00;;;;;;;6.60;5.30;;;23.70;73.20;;;;;;5032880;28;20080;-48
2021/07/27 09:33:30;;;;;;;4.93;4.43;;;23.80;73.30;;;;;;5037352;28;20049;-42
2021/07/27 09:35:56;;;;;;;5.03;4.20;;;23.70;73.20;;;;;;5032406;28;20045;-43
2021/07/27 09:38:24;;;;;;;5.07;4.45;;;23.80;73.30;;;;;;5032989;28;20367;-55
2021/07/27 09:40:51;;;;;;;6.32;5.40;;;23.80;73.20;;;;;;5032837;28;20046;-46
2021/07/27 09:43:22;;;;;;;5.28;4.70;;;23.80;73.30;;;;;;5032560;28;20129;-52
2021/07/27 09:45:50;;;;;;;15.05;6.15;;;23.80;73.20;;;;;;5050527;28;20105;-49
2021/07/27 09:48:16;;;;;;;6.25;4.95;;;23.80;73.20;;;;;;5052331;28;20045;-46
2021/07/27 09:50:45;;;;;;;5.10;4.60;;;23.80;73.20;;;;;;5052221;28;20541;-47
2021/07/27 09:53:11;;;;;;;6.60;5.90;;;23.80;73.20;;;;;;5052421;28;20060;-49
2021/07/27 09:55:38;;;;;;;5.50;4.82;;;23.90;73.20;;;;;;5051770;28;20091;-53
2021/07/27 09:58:03;;;;;;;5.63;4.55;;;23.90;73.20;;;;;;5052381;28;20109;-46
2021/07/27 10:00:30;;;;;;;6.20;5.43;;;23.90;73.20;;;;;;5052571;28;20112;-47
2021/07/27 10:02:58;;;;;;;5.93;5.30;;;23.90;73.10;;;;;;5051832;28;20065;-49
2021/07/27 10:05:26;;;;;;;6.80;5.32;;;23.90;73.10;;;;;;5051194;28;20037;-46
2021/07/27 10:07:58;;;;;;;5.72;5.05;;;23.90;73.10;;;;;;5052104;28;20048;-45
2021/07/27 10:11:04;;;;;;;5.50;4.80;;;23.90;73.10;;;;;;5051637;28;20072;-43
2021/07/27 10:13:34;;;;;;;5.87;5.10;;;23.90;73.70;;;;;;5010336;28;20119;-45
2021/07/27 10:16:01;;;;;;;5.65;4.95;;;23.90;73.10;;;;;;5005489;28;20065;-43
2021/07/27 10:18:32;;;;;;;5.50;4.97;;;23.90;73.10;;;;;;4989840;28;20530;-46
2021/07/27 10:21:24;;;;;;;6.22;5.63;;;23.90;73.00;;;;;;4990827;28;20054;-44
2021/07/27 10:23:58;;;;;;;6.07;5.47;;;23.90;73.00;;;;;;4990642;28;20462;-50
2021/07/27 10:26:29;;;;;;;6.35;5.53;;;23.90;73.00;;;;;;4992039;28;20050;-50
2021/07/27 10:28:55;;;;;;;5.72;4.72;;;23.90;73.00;;;;;;4990508;28;20050;-46
2021/07/27 10:31:37;;;;;;;5.97;5.38;;;23.90;73.00;;;;;;4990492;28;20528;-48
2021/07/27 10:34:05;;;;;;;6.68;5.93;;;23.90;72.90;;;;;;4989751;28;20054;-47
2021/07/27 10:36:34;;;;;;;5.90;5.40;;;23.90;73.00;;;;;;5006463;28;20143;-46
2021/07/27 10:39:11;;;;;;;6.10;5.43;;;24.00;73.00;;;;;;4994055;28;20081;-46
2021/07/27 10:41:43;;;;;;;5.63;5.10;;;23.90;72.90;;;;;;4994146;28;20077;-48
2021/07/27 10:44:23;;;;;;;6.18;4.90;;;24.00;73.00;;;;;;5012019;28;20078;-52
2021/07/27 10:46:51;;;;;;;5.88;5.28;;;24.00;72.90;;;;;;5011879;28;20050;-46
2021/07/27 10:49:22;;;;;;;5.32;4.82;;;24.00;73.00;;;;;;5013909;28;20060;-47
2021/07/27 10:51:50;;;;;;;5.55;4.93;;;24.00;72.90;;;;;;5035946;28;20046;-50
2021/07/27 10:54:22;;;;;;;5.78;5.18;;;24.00;72.90;;;;;;5035646;28;20041;-43
2021/07/27 10:56:59;;;;;;;5.60;4.93;;;24.00;72.90;;;;;;5052680;28;20115;-42
2021/07/27 10:59:26;;;;;;;5.95;5.35;;;24.00;72.80;;;;;;5055262;28;20103;-44
2021/07/27 11:01:54;;;;;;;5.50;5.00;;;24.00;73.10;;;;;;5055084;28;20053;-56
2021/07/27 11:04:29;;;;;;;6.10;5.50;;;24.00;72.80;;;;;;5054787;28;20076;-51
2021/07/27 11:07:13;;;;;;;;;;;24.10;72.80;;;;;;5055250;28;20784;-47
2021/07/27 11:10:05;;;;;;;5.90;5.30;;;24.10;72.70;;;;;;5055255;28;19928;-46
2021/07/27 11:12:43;;;;;;;5.82;5.25;;;24.10;72.70;;;;;;5053934;28;20460;-48
2021/07/27 11:15:23;;;;;;;5.75;5.13;;;24.10;72.70;;;;;;5055026;28;20045;-48
2021/07/27 11:18:00;;;;;;;5.75;5.15;;;24.10;72.70;;;;;;5035437;28;20076;-48
2021/07/27 11:20:37;;;;;;;5.57;5.07;;;24.10;72.70;;;;;;5041805;28;20053;-46
2021/07/27 11:23:16;;;;;;;6.47;5.60;;;24.10;72.60;;;;;;5055029;28;20116;-49
2021/07/27 11:25:42;;;;;;;5.30;4.78;;;24.10;72.60;;;;;;5054752;28;20049;-47
2021/07/27 11:28:13;;;;;;;5.82;5.22;;;24.10;72.60;;;;;;5054798;28;20053;-48
2021/07/27 11:30:40;;;;;;;6.05;5.43;;;24.10;72.60;;;;;;5054639;28;20041;-47
2021/07/27 11:33:13;;;;;;;6.22;5.63;;;24.20;72.70;;;;;;5054994;28;20056;-44
2021/07/27 11:35:49;;;;;;;6.35;5.75;;;24.10;72.50;;;;;;5036898;28;20077;-48
2021/07/27 11:38:30;;;;;;;6.07;5.47;;;24.20;72.50;;;;;;5054568;28;20049;-45
2021/07/27 11:41:04;;;;;;;5.78;5.18;;;24.20;72.50;;;;;;5054691;28;20095;-50
2021/07/27 11:43:32;;;;;;;6.10;5.50;;;24.20;72.50;;;;;;5034516;28;20060;-52
2021/07/27 11:46:05;;;;;;;6.45;5.68;;;24.20;72.50;;;;;;5038316;28;20044;-48
2021/07/27 11:48:34;;;;;;;6.45;5.75;;;24.20;72.40;;;;;;5054617;28;20119;-44
2021/07/27 11:50:59;;;;;;;6.07;5.40;;;24.20;72.40;;;;;;5053085;28;20053;-50
2021/07/27 11:53:25;;;;;;;6.32;5.72;;;24.20;72.40;;;;;;5054115;28;20398;-48
2021/07/27 11:55:51;;;;;;;5.95;5.45;;;24.20;72.40;;;;;;5054179;28;20568;-49
2021/07/27 11:58:29;;;;;;;5.63;5.03;;;24.20;72.30;;;;;;5054179;28;20112;-47
2021/07/27 12:00:59;;;;;;;6.80;6.10;;;24.20;72.30;;;;;;5054224;28;20421;-48
2021/07/27 12:03:25;;;;;;;5.93;5.32;;;24.20;72.90;;;;;;5054050;28;20059;-50
2021/07/27 12:05:53;;;;;;;5.93;5.32;;;24.30;72.30;;;;;;5054298;28;20049;-44
2021/07/27 12:08:19;;;;;;;5.70;5.20;;;24.30;72.30;;;;;;5053829;28;20049;-55
2021/07/27 12:10:45;;;;;;;5.88;5.30;;;24.30;72.30;;;;;;5053456;28;20474;-50
2021/07/27 12:13:11;;;;;;;6.20;5.60;;;24.30;72.20;;;;;;5053901;28;20064;-44
2021/07/27 12:15:37;;;;;;;5.72;5.13;;;24.30;72.20;;;;;;5053718;28;20041;-45
2021/07/27 12:18:03;;;;;;;6.63;5.68;;;24.30;72.20;;;;;;5053376;28;20044;-47
2021/07/27 12:20:29;;;;;;;6.00;5.38;;;24.30;72.20;;;;;;5054001;28;20379;-47
2021/07/27 12:22:55;;;;;;;6.10;5.53;;;24.30;72.20;;;;;;5053702;28;20056;-49
2021/07/27 12:25:20;;;;;;;5.75;5.15;;;24.30;72.20;;;;;;5053565;28;20084;-51
2021/07/27 12:27:46;;;;;;;6.63;5.93;;;24.30;72.10;;;;;;5053507;28;20049;-50
2021/07/27 12:30:12;;;;;;;6.70;5.60;;;24.30;72.10;;;;;;5054179;28;20059;-49
2021/07/27 12:32:38;;;;;;;5.57;5.07;;;24.30;72.00;;;;;;5053402;28;20052;-46
2021/07/27 12:35:05;;;;;;;6.20;5.60;;;24.30;72.00;;;;;;5053430;28;20041;-46
2021/07/27 12:37:33;;;;;;;5.78;5.28;;;24.40;72.00;;;;;;5053469;28;20049;-43
2021/07/27 12:39:59;;;;;;;6.32;5.72;;;24.30;72.00;;;;;;5053187;28;20047;-46
2021/07/27 12:42:24;;;;;;;6.18;5.32;;;24.30;71.90;;;;;;5053751;28;20131;-44
2021/07/27 12:44:50;;;;;;;6.03;5.43;;;24.40;71.90;;;;;;5053522;28;20481;-44
2021/07/27 12:47:16;;;;;;;5.47;4.97;;;24.30;71.90;;;;;;5052949;28;20133;-43
2021/07/27 12:49:41;;;;;;;6.78;6.07;;;24.40;71.90;;;;;;5053339;28;20049;-46
2021/07/27 12:52:11;;;;;;;5.90;4.90;;;24.40;71.90;;;;;;5052949;28;20044;-45
2021/07/27 12:54:40;;;;;;;6.50;5.80;;;24.40;71.80;;;;;;5053063;28;20571;-47
2021/07/27 12:57:06;;;;;;;6.47;5.80;;;24.40;71.80;;;;;;5052549;28;20481;-48
2021/07/27 12:59:33;;;;;;;5.85;5.25;;;24.40;71.80;;;;;;5053378;28;20072;-48
2021/07/27 13:01:58;;;;;;;5.70;5.13;;;24.40;71.80;;;;;;5052829;28;20052;-50
2021/07/27 13:04:25;;;;;;;6.47;5.88;;;24.40;71.80;;;;;;5053245;28;20056;-43
2021/07/27 13:06:51;;;;;;;6.28;5.15;;;24.40;71.80;;;;;;5051750;28;20115;-49
2021/07/27 13:09:17;;;;;;;5.85;5.25;;;24.40;71.80;;;;;;5052645;28;20052;-47
2021/07/27 13:11:43;;;;;;;5.45;4.95;;;24.40;71.80;;;;;;5052899;28;20045;-49
2021/07/27 13:14:08;;;;;;;6.05;5.45;;;24.40;71.70;;;;;;5052969;28;20045;-47